Time;durP1;ratioP1;P1;durP2;ratioP2;P2;SDS_P1;SDS_P2;PMS_P1;PMS_P2;Temp;Humidity;BMP_temperature;BMP_pressure;BME280_temperature;BME280_humidity;BME280_pressure;Samples;Min_cycle;Max_cycle;Signal;HPM_P1;HPM_P2
2021/12/28 00:01:09;;;;;;;93.53;35.72;;;6.50;99.90;;;;;;6218868;23;20016;-91
2021/12/28 00:03:36;;;;;;;103.80;38.47;;;6.40;99.90;;;;;;6218861;23;20095;-91
2021/12/28 00:06:02;;;;;;;105.03;38.22;;;6.50;99.90;;;;;;6219144;23;20027;-91
2021/12/28 00:08:28;;;;;;;92.45;35.78;;;6.50;99.90;;;;;;6219289;23;20321;-90
2021/12/28 00:10:55;;;;;;;109.65;38.75;;;6.50;99.90;;;;;;6196069;22;20020;-91
2021/12/28 00:13:21;;;;;;;96.65;37.20;;;6.50;99.90;;;;;;6249504;22;20015;-91
2021/12/28 00:18:37;;;;;;;123.82;38.65;;;6.70;99.90;;;;;;6128175;23;20021;-91
2021/12/28 00:21:04;;;;;;;107.38;39.92;;;6.60;99.90;;;;;;6129557;23;20480;-91
2021/12/28 00:23:37;;;;;;;109.60;40.22;;;6.60;99.90;;;;;;6130625;23;20028;-91
2021/12/28 00:26:05;;;;;;;107.60;37.78;;;6.60;99.90;;;;;;6130441;23;20029;-91
2021/12/28 00:28:31;;;;;;;100.85;39.47;;;6.80;99.90;;;;;;6130710;23;20533;-91
2021/12/28 00:30:58;;;;;;;102.13;40.42;;;6.50;99.90;;;;;;6130716;23;20402;-91
2021/12/28 00:33:24;;;;;;;125.45;42.28;;;6.70;99.90;;;;;;6130248;23;20037;-90
2021/12/28 00:35:51;;;;;;;126.68;43.13;;;6.70;99.90;;;;;;6154740;23;20485;-90
2021/12/28 00:38:21;;;;;;;139.02;41.42;;;6.70;99.90;;;;;;6154914;23;20021;-91
2021/12/28 00:40:55;;;;;;;133.07;43.10;;;7.10;99.90;;;;;;6130613;23;20026;-90
2021/12/28 00:43:21;;;;;;;119.78;41.97;;;6.70;99.90;;;;;;6130009;23;20029;-91
2021/12/28 00:45:47;;;;;;;128.55;44.22;;;6.70;99.90;;;;;;6130115;23;20017;-90
2021/12/28 00:48:13;;;;;;;137.52;43.13;;;7.20;99.90;;;;;;6154681;23;20109;-90
2021/12/28 00:50:39;;;;;;;161.25;44.97;;;7.10;99.90;;;;;;6154771;23;20137;-90
2021/12/28 00:53:05;;;;;;;140.23;44.33;;;6.80;99.90;;;;;;6130115;23;20022;-91
2021/12/28 00:55:32;;;;;;;160.15;45.88;;;6.80;99.90;;;;;;6188912;22;20055;-90
2021/12/28 00:57:58;;;;;;;195.35;46.25;;;6.80;99.90;;;;;;6226089;22;20094;-90
2021/12/28 01:00:31;;;;;;;154.20;44.58;;;6.90;99.90;;;;;;6251606;22;20016;-90
2021/12/28 01:02:59;;;;;;;183.63;43.88;;;6.90;99.90;;;;;;6251360;22;20019;-90
2021/12/28 01:05:26;;;;;;;154.50;46.92;;;6.80;99.90;;;;;;6251780;22;20022;-89
2021/12/28 01:07:53;;;;;;;178.20;45.65;;;6.80;99.90;;;;;;6225902;22;20063;-90
2021/12/28 01:10:23;;;;;;;179.73;46.75;;;6.90;99.90;;;;;;6251607;22;20020;-90
2021/12/28 01:12:52;;;;;;;201.88;49.42;;;6.90;99.90;;;;;;6226158;22;20020;-91
2021/12/28 01:15:20;;;;;;;236.77;48.88;;;7.10;99.90;;;;;;6251316;22;20058;-91
2021/12/28 01:17:46;;;;;;;158.07;46.17;;;7.00;99.90;;;;;;6251299;22;20016;-91
2021/12/28 01:20:13;;;;;;;190.35;48.17;;;7.30;99.90;;;;;;6251452;22;20008;-91
2021/12/28 01:22:40;;;;;;;173.48;45.58;;;7.30;99.90;;;;;;6251200;22;20026;-90
2021/12/28 01:25:07;;;;;;;226.40;48.40;;;7.10;99.90;;;;;;6251413;22;20015;-91
2021/12/28 01:27:33;;;;;;;174.48;46.53;;;7.00;99.90;;;;;;6225982;22;20529;-90
2021/12/28 01:29:59;;;;;;;200.95;48.15;;;7.20;99.90;;;;;;6250789;22;20024;-90
2021/12/28 01:32:25;;;;;;;208.48;48.53;;;7.00;99.90;;;;;;6250697;22;20016;-90
2021/12/28 01:34:51;;;;;;;218.75;49.97;;;7.00;99.90;;;;;;6251333;22;20019;-90
2021/12/28 01:37:17;;;;;;;209.38;51.35;;;7.30;99.90;;;;;;6225423;22;20085;-90
2021/12/28 01:39:42;;;;;;;277.35;51.15;;;7.40;99.90;;;;;;6250561;22;20061;-90
2021/12/28 01:42:08;;;;;;;205.52;48.90;;;7.10;99.90;;;;;;6250939;22;20061;-90
2021/12/28 01:44:36;;;;;;;241.93;48.55;;;7.10;99.90;;;;;;6250684;22;20484;-90
2021/12/28 01:47:02;;;;;;;258.13;49.40;;;7.20;99.90;;;;;;6250785;22;20069;-90
2021/12/28 01:49:28;;;;;;;329.20;52.60;;;7.10;99.90;;;;;;6225862;22;20027;-91
2021/12/28 01:51:54;;;;;;;325.25;53.30;;;6.80;99.90;;;;;;6225648;22;20019;-91
2021/12/28 01:54:21;;;;;;;237.05;49.17;;;7.20;99.90;;;;;;6251097;22;20022;-91
2021/12/28 01:56:47;;;;;;;232.52;47.67;;;7.10;99.90;;;;;;6251122;22;20030;-91
2021/12/28 01:59:16;;;;;;;276.63;51.72;;;7.10;99.90;;;;;;6225426;22;20026;-91
2021/12/28 02:01:44;;;;;;;255.27;49.40;;;7.10;99.90;;;;;;6225435;22;20080;-91
2021/12/28 02:04:27;;;;;;;232.00;48.63;;;7.10;99.90;;;;;;6225720;22;20344;-90
2021/12/28 02:06:55;;;;;;;244.32;47.90;;;7.10;99.90;;;;;;6250727;22;20509;-92
2021/12/28 02:09:21;;;;;;;237.45;49.55;;;6.90;99.90;;;;;;6251061;22;20443;-91
2021/12/28 02:11:47;;;;;;;217.98;47.40;;;7.20;99.90;;;;;;6250617;22;20019;-91
2021/12/28 02:14:13;;;;;;;196.65;46.72;;;7.20;99.90;;;;;;6225644;22;20481;-90
2021/12/28 02:16:51;;;;;;;249.70;49.72;;;7.00;99.90;;;;;;6225593;22;20020;-92
2021/12/28 02:19:18;;;;;;;244.10;48.20;;;7.20;99.90;;;;;;6250772;22;20340;-91
2021/12/28 02:21:47;;;;;;;205.88;49.17;;;7.20;99.90;;;;;;6225448;22;20020;-90
2021/12/28 02:24:15;;;;;;;168.75;46.20;;;7.20;99.90;;;;;;6250675;22;20411;-91
2021/12/28 02:26:41;;;;;;;189.18;45.10;;;7.30;99.90;;;;;;6225280;22;20019;-91
2021/12/28 02:29:07;;;;;;;155.77;44.42;;;7.50;99.90;;;;;;6250728;22;20143;-90
2021/12/28 02:31:33;;;;;;;172.85;46.05;;;7.20;99.90;;;;;;6250347;22;20024;-92
2021/12/28 02:34:01;;;;;;;177.98;47.45;;;7.30;99.90;;;;;;6250640;22;20023;-91
2021/12/28 02:36:27;;;;;;;184.05;45.20;;;7.20;99.90;;;;;;6250697;22;20024;-91
2021/12/28 02:38:53;;;;;;;167.65;46.13;;;7.20;99.90;;;;;;6277805;22;20321;-91
2021/12/28 02:41:19;;;;;;;189.32;45.25;;;7.20;99.90;;;;;;6225391;22;20031;-93
2021/12/28 02:43:49;;;;;;;178.23;45.25;;;7.20;99.90;;;;;;6250733;22;20023;-91
2021/12/28 02:46:16;;;;;;;173.55;44.03;;;7.20;99.90;;;;;;6225345;22;20343;-91
2021/12/28 02:48:42;;;;;;;139.10;42.15;;;7.20;99.90;;;;;;6250611;22;20101;-91
2021/12/28 02:51:12;;;;;;;132.05;41.10;;;7.40;99.90;;;;;;6225437;22;20019;-90
2021/12/28 02:53:38;;;;;;;137.10;41.17;;;7.30;99.90;;;;;;6225195;22;20065;-91
2021/12/28 02:56:05;;;;;;;158.18;43.60;;;7.50;99.90;;;;;;6250398;22;20020;-91
2021/12/28 02:58:37;;;;;;;141.38;41.50;;;7.30;99.90;;;;;;6250582;22;20050;-91
2021/12/28 03:01:15;;;;;;;141.80;41.85;;;7.30;99.90;;;;;;6250293;22;20447;-91
2021/12/28 03:03:43;;;;;;;153.82;40.80;;;7.40;99.90;;;;;;6250308;22;20050;-91
2021/12/28 03:06:11;;;;;;;148.38;40.33;;;7.60;99.90;;;;;;6250163;22;20335;-90
2021/12/28 03:08:41;;;;;;;129.35;40.28;;;7.30;99.90;;;;;;6250262;22;20081;-91
2021/12/28 03:11:08;;;;;;;112.83;37.50;;;7.30;99.90;;;;;;6224722;22;20343;-91
2021/12/28 03:13:40;;;;;;;112.88;37.47;;;7.30;99.90;;;;;;6225282;22;20034;-92
2021/12/28 03:16:06;;;;;;;127.40;38.85;;;7.30;99.90;;;;;;6224968;22;20024;-92
2021/12/28 03:18:33;;;;;;;112.82;38.20;;;7.30;99.90;;;;;;6225226;22;20020;-93
2021/12/28 03:21:00;;;;;;;127.47;37.95;;;7.40;99.90;;;;;;6225058;22;20027;-90
2021/12/28 03:23:26;;;;;;;115.00;37.90;;;7.30;99.90;;;;;;6225022;22;20020;-91
2021/12/28 03:25:54;;;;;;;98.40;35.78;;;7.30;99.90;;;;;;6250000;22;20027;-90
2021/12/28 03:28:22;;;;;;;112.20;37.63;;;7.30;99.90;;;;;;6224868;22;20402;-91
2021/12/28 03:30:49;;;;;;;108.45;35.97;;;7.50;99.90;;;;;;6250049;22;20019;-90
2021/12/28 03:33:15;;;;;;;109.55;37.75;;;7.30;99.90;;;;;;6224905;22;20042;-91
2021/12/28 03:35:42;;;;;;;117.38;38.42;;;7.30;99.90;;;;;;6250296;22;20027;-91
2021/12/28 03:38:07;;;;;;;101.40;37.92;;;7.40;99.90;;;;;;6250099;22;20016;-90
2021/12/28 03:40:33;;;;;;;121.10;37.28;;;7.30;99.90;;;;;;6250166;22;20470;-90
2021/12/28 03:42:59;;;;;;;107.00;37.65;;;7.20;99.90;;;;;;6249560;22;20478;-90
2021/12/28 03:45:25;;;;;;;111.60;37.80;;;7.20;99.90;;;;;;6224307;22;20340;-92
2021/12/28 03:47:50;;;;;;;128.20;38.22;;;7.10;99.90;;;;;;6224641;22;20062;-91
2021/12/28 03:50:18;;;;;;;125.07;39.13;;;7.20;99.90;;;;;;6250089;22;20028;-90
2021/12/28 03:52:45;;;;;;;129.57;38.42;;;7.10;99.90;;;;;;6224313;22;20055;-91
2021/12/28 03:55:11;;;;;;;134.00;39.30;;;7.00;99.90;;;;;;6224257;22;20022;-90
2021/12/28 03:57:39;;;;;;;136.88;36.88;;;6.90;99.90;;;;;;6224374;22;20044;-90
2021/12/28 04:00:08;;;;;;;120.30;36.13;;;6.80;99.90;;;;;;6224316;22;20331;-89
2021/12/28 04:02:34;;;;;;;121.43;37.83;;;6.80;99.90;;;;;;6224208;22;20406;-90
2021/12/28 04:05:02;;;;;;;111.82;34.97;;;6.70;99.90;;;;;;6249690;22;20058;-89
2021/12/28 04:07:29;;;;;;;113.00;34.28;;;6.80;99.90;;;;;;6224238;22;20026;-91
2021/12/28 04:12:22;;;;;;;147.50;36.15;;;6.60;99.90;;;;;;6249697;22;20026;-91
2021/12/28 04:14:48;;;;;;;129.70;35.03;;;6.50;99.90;;;;;;6249653;22;20020;-90
2021/12/28 04:17:14;;;;;;;98.35;33.80;;;6.50;99.90;;;;;;6249194;22;20047;-89
2021/12/28 04:19:40;;;;;;;114.15;33.80;;;6.50;99.90;;;;;;6249788;22;20379;-90
2021/12/28 04:22:07;;;;;;;108.15;33.58;;;6.60;99.90;;;;;;6223600;22;20121;-90
2021/12/28 04:24:33;;;;;;;107.13;32.40;;;6.50;99.90;;;;;;6249545;22;20134;-90
2021/12/28 04:26:58;;;;;;;115.57;32.90;;;6.40;99.90;;;;;;6249546;22;20020;-89
2021/12/28 04:29:24;;;;;;;118.18;34.17;;;6.50;99.90;;;;;;6249286;22;20335;-90
2021/12/28 04:32:06;;;;;;;100.25;32.67;;;6.60;99.90;;;;;;6249539;22;20047;-90
2021/12/28 04:34:31;;;;;;;109.43;32.60;;;6.40;99.90;;;;;;6249471;22;20019;-89
2021/12/28 04:36:57;;;;;;;96.95;31.30;;;6.40;99.90;;;;;;6249152;22;20023;-91
2021/12/28 04:39:23;;;;;;;92.20;30.33;;;6.40;99.90;;;;;;6224618;22;20098;-89
2021/12/28 04:41:49;;;;;;;87.43;29.92;;;6.70;99.90;;;;;;6223817;22;20020;-90
2021/12/28 04:44:22;;;;;;;92.65;29.58;;;6.90;99.90;;;;;;6223983;22;20451;-90
2021/12/28 04:46:47;;;;;;;71.43;28.23;;;6.50;99.90;;;;;;6224254;22;20332;-90
2021/12/28 04:49:15;;;;;;;82.88;27.50;;;6.60;99.90;;;;;;6249515;22;20023;-90
2021/12/28 04:51:41;;;;;;;95.63;28.80;;;6.60;99.90;;;;;;6223607;22;20023;-90
2021/12/28 04:54:11;;;;;;;75.60;27.42;;;6.60;99.90;;;;;;6249515;22;20020;-90
2021/12/28 04:56:37;;;;;;;77.28;26.52;;;6.90;99.90;;;;;;6224331;22;20489;-91
2021/12/28 04:59:03;;;;;;;74.88;25.92;;;6.90;99.90;;;;;;6223856;22;20370;-91
2021/12/28 05:01:29;;;;;;;77.35;27.92;;;6.70;99.90;;;;;;6224542;22;20020;-92
2021/12/28 05:03:55;;;;;;;71.05;25.27;;;6.90;99.90;;;;;;6249626;22;20020;-90
2021/12/28 05:06:20;;;;;;;73.32;26.15;;;6.80;99.90;;;;;;6249488;22;20016;-90
2021/12/28 05:08:46;;;;;;;71.18;25.17;;;6.60;99.90;;;;;;6251329;22;20470;-90
2021/12/28 05:11:14;;;;;;;58.25;23.45;;;6.60;99.90;;;;;;6225859;22;20031;-90
2021/12/28 05:13:40;;;;;;;63.83;23.50;;;6.60;99.90;;;;;;6225821;22;20042;-90
2021/12/28 05:16:06;;;;;;;58.47;21.85;;;6.70;99.90;;;;;;6225868;22;20024;-90
2021/12/28 05:18:32;;;;;;;65.43;23.42;;;6.70;99.90;;;;;;6251158;22;20022;-91
2021/12/28 05:20:59;;;;;;;53.83;21.25;;;6.70;99.90;;;;;;6225812;22;20103;-90
2021/12/28 05:23:24;;;;;;;53.80;22.15;;;6.60;99.90;;;;;;6251004;22;20016;-89
2021/12/28 05:25:50;;;;;;;49.20;19.73;;;6.70;99.90;;;;;;6225514;22;20027;-90
2021/12/28 05:28:16;;;;;;;43.45;19.48;;;6.50;99.90;;;;;;6251040;22;20019;-90
2021/12/28 05:30:41;;;;;;;46.35;18.70;;;6.70;99.90;;;;;;6251221;22;20367;-90
2021/12/28 05:33:07;;;;;;;44.45;19.55;;;6.90;99.90;;;;;;6225670;22;20440;-90
2021/12/28 05:35:33;;;;;;;39.85;17.95;;;6.80;99.90;;;;;;6225922;22;20020;-90
2021/12/28 05:37:59;;;;;;;48.40;19.13;;;6.70;99.90;;;;;;6251188;22;20015;-90
2021/12/28 05:40:25;;;;;;;45.53;17.75;;;6.50;99.90;;;;;;6251193;22;20094;-90
2021/12/28 05:42:51;;;;;;;48.85;17.88;;;6.60;99.90;;;;;;6225637;22;20102;-90
2021/12/28 05:45:16;;;;;;;41.20;18.17;;;6.50;99.90;;;;;;6250725;22;20024;-90
2021/12/28 05:47:42;;;;;;;41.30;17.65;;;6.50;99.90;;;;;;6225798;22;20473;-90
2021/12/28 05:50:09;;;;;;;49.42;18.95;;;6.30;99.90;;;;;;6250627;22;20419;-91
2021/12/28 05:52:35;;;;;;;45.63;17.70;;;6.30;99.90;;;;;;6250698;22;20019;-90
2021/12/28 05:55:01;;;;;;;44.90;17.98;;;6.30;99.90;;;;;;6225482;22;20024;-90
2021/12/28 05:57:26;;;;;;;48.35;18.60;;;6.30;99.90;;;;;;6225581;22;20020;-91
2021/12/28 05:59:52;;;;;;;42.30;17.55;;;6.40;99.90;;;;;;6250885;22;20019;-90
2021/12/28 06:02:18;;;;;;;45.80;16.52;;;6.40;99.90;;;;;;6224578;22;20019;-90
2021/12/28 06:04:43;;;;;;;46.83;17.63;;;6.70;99.90;;;;;;6250676;22;20070;-91
2021/12/28 06:07:09;;;;;;;29.48;14.65;;;6.60;99.90;;;;;;6225425;22;20031;-90
2021/12/28 06:09:35;;;;;;;37.95;15.57;;;6.70;99.90;;;;;;6251285;22;20015;-91
2021/12/28 06:12:01;;;;;;;32.08;15.38;;;6.80;99.90;;;;;;6250572;22;20051;-90
2021/12/28 06:14:26;;;;;;;36.42;14.15;;;6.70;99.90;;;;;;6250639;22;20020;-90
2021/12/28 06:16:54;;;;;;;35.05;14.32;;;6.80;99.90;;;;;;6224988;22;20024;-90
2021/12/28 06:19:19;;;;;;;32.30;13.57;;;6.60;99.90;;;;;;6224187;22;20023;-90
2021/12/28 06:21:45;;;;;;;30.60;13.70;;;6.70;99.90;;;;;;6250351;22;20022;-89
2021/12/28 06:24:11;;;;;;;25.73;11.68;;;6.70;99.90;;;;;;6276163;22;20466;-90
2021/12/28 06:26:37;;;;;;;31.73;11.43;;;6.90;99.90;;;;;;6225046;22;20047;-90
2021/12/28 06:29:05;;;;;;;28.95;11.73;;;6.70;99.90;;;;;;6250382;22;20019;-90
2021/12/28 06:31:31;;;;;;;26.77;10.57;;;6.80;99.90;;;;;;6225085;22;20023;-92
2021/12/28 06:33:59;;;;;;;27.27;10.07;;;6.90;99.90;;;;;;6250325;22;20363;-90
2021/12/28 06:36:25;;;;;;;30.52;10.57;;;7.20;99.90;;;;;;6225123;22;20317;-89
2021/12/28 06:38:51;;;;;;;34.88;9.85;;;6.80;99.90;;;;;;6225073;22;20020;-90
2021/12/28 06:41:17;;;;;;;26.05;9.27;;;6.90;99.90;;;;;;6250450;22;20090;-88
2021/12/28 06:43:43;;;;;;;22.52;9.57;;;6.90;99.90;;;;;;6250637;22;20456;-90
2021/12/28 06:46:09;;;;;;;27.60;9.60;;;6.90;99.90;;;;;;6224867;22;20050;-90
2021/12/28 06:48:34;;;;;;;31.52;9.60;;;6.90;99.90;;;;;;6250436;22;20031;-90
2021/12/28 06:51:00;;;;;;;23.98;8.48;;;6.90;99.90;;;;;;6250768;22;20016;-89
2021/12/28 06:53:26;;;;;;;23.38;7.95;;;7.30;99.90;;;;;;6224289;22;20016;-90
2021/12/28 06:55:52;;;;;;;23.70;8.23;;;6.90;99.90;;;;;;6249803;22;20463;-90
2021/12/28 06:58:20;;;;;;;28.52;9.43;;;7.00;99.90;;;;;;6249600;22;20020;-90
2021/12/28 07:00:46;;;;;;;31.83;9.45;;;6.90;99.90;;;;;;6250714;22;20020;-90
2021/12/28 07:03:12;;;;;;;27.67;8.93;;;6.90;99.90;;;;;;6225075;22;20340;-91
2021/12/28 07:05:37;;;;;;;29.85;9.18;;;6.90;99.90;;;;;;6225032;22;20119;-90
2021/12/28 07:08:03;;;;;;;30.95;9.77;;;6.90;99.90;;;;;;6224859;22;20024;-89
2021/12/28 07:10:29;;;;;;;27.58;8.60;;;6.90;99.90;;;;;;6225006;22;20018;-91
2021/12/28 07:12:55;;;;;;;25.00;8.77;;;6.90;99.90;;;;;;6249919;22;20441;-90
2021/12/28 07:15:22;;;;;;;31.48;8.70;;;6.90;99.90;;;;;;6250080;22;20436;-91
2021/12/28 07:17:48;;;;;;;26.33;8.95;;;6.80;99.90;;;;;;6250005;22;20439;-91
2021/12/28 07:20:15;;;;;;;34.38;9.23;;;6.80;99.90;;;;;;6275481;22;20038;-90
2021/12/28 07:22:41;;;;;;;27.55;8.45;;;6.80;99.90;;;;;;6249881;22;20019;-90
2021/12/28 07:25:09;;;;;;;27.98;9.45;;;6.80;99.90;;;;;;6224531;22;20103;-88
2021/12/28 07:27:36;;;;;;;28.13;9.68;;;6.80;99.90;;;;;;6250042;22;20336;-89
2021/12/28 07:30:05;;;;;;;28.95;9.57;;;6.80;99.90;;;;;;6224347;22;20049;-90
2021/12/28 07:32:31;;;;;;;28.15;9.13;;;6.80;99.90;;;;;;6249329;22;20015;-90
2021/12/28 07:34:57;;;;;;;30.52;9.07;;;6.80;99.90;;;;;;6224571;22;20020;-92
2021/12/28 07:37:23;;;;;;;27.95;9.13;;;6.70;99.90;;;;;;6223834;22;20466;-90
2021/12/28 07:39:50;;;;;;;32.33;9.90;;;6.60;99.90;;;;;;6249788;22;20020;-90
2021/12/28 07:42:17;;;;;;;29.27;9.77;;;6.70;99.90;;;;;;6249488;22;20095;-89
2021/12/28 07:44:43;;;;;;;31.67;10.55;;;6.70;99.90;;;;;;6249371;22;20034;-91
2021/12/28 07:47:08;;;;;;;27.52;9.05;;;6.70;99.90;;;;;;6249438;22;20023;-89
2021/12/28 07:49:35;;;;;;;28.13;9.23;;;6.60;99.90;;;;;;6249348;22;20070;-90
2021/12/28 07:52:03;;;;;;;29.80;9.73;;;6.70;99.90;;;;;;6249611;22;20016;-90
2021/12/28 07:54:29;;;;;;;26.02;9.25;;;6.70;99.90;;;;;;6249774;22;20081;-90
2021/12/28 07:56:54;;;;;;;25.90;8.88;;;7.10;99.90;;;;;;6227418;22;20012;-90
2021/12/28 07:59:20;;;;;;;26.73;9.02;;;6.70;99.90;;;;;;6248834;22;20054;-90
2021/12/28 08:01:46;;;;;;;27.13;8.50;;;6.70;99.90;;;;;;6249688;22;20020;-90
2021/12/28 08:04:11;;;;;;;25.90;9.20;;;6.80;99.90;;;;;;6249032;22;20344;-93
2021/12/28 08:06:37;;;;;;;25.15;8.80;;;6.80;99.90;;;;;;6223656;22;20015;-90
2021/12/28 08:09:04;;;;;;;25.80;8.73;;;6.80;99.90;;;;;;6223860;22;20020;-90
2021/12/28 08:11:30;;;;;;;33.10;8.60;;;6.90;99.90;;;;;;6224166;22;20019;-90
2021/12/28 08:13:55;;;;;;;23.67;8.13;;;6.80;99.90;;;;;;6249501;22;20019;-90
2021/12/28 08:16:21;;;;;;;26.88;7.95;;;7.10;99.90;;;;;;6248943;22;20344;-91
2021/12/28 08:18:47;;;;;;;35.42;8.65;;;6.80;99.90;;;;;;6249395;22;20094;-91
2021/12/28 08:21:13;;;;;;;29.92;8.18;;;6.90;99.90;;;;;;6223845;22;20099;-90
2021/12/28 08:23:39;;;;;;;32.13;8.40;;;7.30;99.90;;;;;;6249117;22;20023;-90
2021/12/28 08:26:04;;;;;;;29.27;8.32;;;6.90;99.90;;;;;;6224602;22;20039;-91
2021/12/28 08:28:30;;;;;;;31.15;8.75;;;6.90;99.90;;;;;;6254417;22;20016;-91
2021/12/28 08:30:56;;;;;;;26.52;7.88;;;7.00;99.90;;;;;;6223795;22;20099;-91
2021/12/28 08:33:23;;;;;;;33.75;8.00;;;6.90;99.90;;;;;;6249039;22;20020;-93
2021/12/28 08:35:49;;;;;;;27.13;7.60;;;7.00;99.90;;;;;;6249643;22;20023;-89
2021/12/28 08:38:15;;;;;;;23.60;7.68;;;6.90;99.90;;;;;;6225625;22;20026;-90
2021/12/28 08:40:43;;;;;;;30.42;7.97;;;7.00;99.90;;;;;;6224367;22;20047;-89
2021/12/28 08:43:10;;;;;;;29.13;7.72;;;6.90;99.90;;;;;;6251246;22;20016;-90
2021/12/28 08:45:36;;;;;;;23.73;6.70;;;7.00;99.90;;;;;;6277834;22;20015;-90
2021/12/28 08:48:03;;;;;;;30.48;7.40;;;6.90;99.90;;;;;;6250559;22;20027;-91
2021/12/28 08:50:29;;;;;;;28.52;7.35;;;7.00;99.90;;;;;;6251508;22;20015;-91
2021/12/28 08:52:54;;;;;;;23.88;7.60;;;7.30;99.90;;;;;;6224499;22;20466;-91
2021/12/28 08:55:24;;;;;;;32.75;7.60;;;7.10;99.90;;;;;;6251087;22;20035;-91
2021/12/28 08:57:51;;;;;;;29.30;7.32;;;7.10;99.90;;;;;;6249599;22;20052;-91
2021/12/28 09:00:25;;;;;;;26.67;6.78;;;7.10;99.90;;;;;;6251796;22;20091;-91
2021/12/28 09:02:53;;;;;;;29.27;7.22;;;7.10;99.90;;;;;;6251385;22;20020;-92
2021/12/28 09:05:18;;;;;;;37.72;7.13;;;7.20;99.90;;;;;;6250542;22;20055;-91
2021/12/28 09:07:44;;;;;;;28.30;6.82;;;7.40;99.90;;;;;;6251730;22;20023;-91
2021/12/28 09:10:10;;;;;;;27.13;7.10;;;7.30;99.90;;;;;;6225832;22;20020;-91
2021/12/28 09:12:36;;;;;;;28.00;6.78;;;7.30;99.90;;;;;;6250964;22;20444;-91
2021/12/28 09:15:04;;;;;;;29.80;6.40;;;7.30;99.90;;;;;;6226152;22;20019;-91
2021/12/28 09:17:30;;;;;;;22.52;5.55;;;7.30;99.90;;;;;;6251309;22;20111;-91
2021/12/28 09:19:56;;;;;;;34.38;7.00;;;7.50;99.90;;;;;;6251176;22;20055;-91
2021/12/28 09:22:22;;;;;;;31.70;6.57;;;7.20;99.90;;;;;;6251121;22;20447;-90
2021/12/28 09:24:47;;;;;;;24.70;6.85;;;7.30;99.90;;;;;;6225745;22;20084;-91
2021/12/28 09:27:13;;;;;;;25.27;6.75;;;7.50;99.90;;;;;;6225815;22;20043;-91
2021/12/28 09:29:42;;;;;;;27.60;6.72;;;7.50;99.90;;;;;;6225533;22;20424;-93
2021/12/28 09:32:09;;;;;;;27.75;6.32;;;7.50;99.90;;;;;;6251385;22;20093;-91
2021/12/28 09:34:35;;;;;;;21.38;6.88;;;7.50;99.90;;;;;;6224102;22;20019;-92
2021/12/28 09:37:00;;;;;;;33.95;7.10;;;7.50;99.90;;;;;;6250684;22;20400;-91
2021/12/28 09:39:28;;;;;;;29.88;7.78;;;7.50;99.90;;;;;;6247512;22;20023;-91
2021/12/28 09:41:58;;;;;;;27.67;7.30;;;7.50;99.90;;;;;;6224919;22;20031;-91
2021/12/28 09:44:25;;;;;;;37.25;9.13;;;7.70;99.90;;;;;;6247932;22;20102;-90
2021/12/28 09:46:51;;;;;;;32.63;8.80;;;7.60;99.90;;;;;;6249898;22;20026;-91
2021/12/28 09:49:17;;;;;;;42.92;7.43;;;8.00;99.90;;;;;;6224666;22;20011;-90
2021/12/28 09:51:43;;;;;;;34.22;8.52;;;7.60;99.90;;;;;;6249499;22;20027;-90
2021/12/28 09:54:08;;;;;;;35.90;8.98;;;7.50;99.90;;;;;;6224484;22;20078;-90
2021/12/28 09:56:36;;;;;;;33.28;7.78;;;7.70;99.90;;;;;;6223662;22;20054;-90
2021/12/28 09:59:03;;;;;;;37.38;9.30;;;7.60;99.90;;;;;;6223649;22;20023;-91
2021/12/28 10:01:28;;;;;;;35.53;8.93;;;7.70;99.90;;;;;;6223159;22;20051;-91
2021/12/28 10:03:55;;;;;;;38.55;9.73;;;7.70;99.90;;;;;;6224091;22;20352;-90
2021/12/28 10:06:25;;;;;;;32.80;9.60;;;7.70;99.90;;;;;;6249995;22;20020;-90
2021/12/28 10:09:13;;;;;;;44.08;9.70;;;7.70;99.90;;;;;;6250747;22;20395;-89
2021/12/28 10:11:44;;;;;;;40.05;11.23;;;7.80;99.90;;;;;;6250035;22;20023;-91
2021/12/28 10:14:20;;;;;;;37.47;9.93;;;7.90;99.90;;;;;;6224873;22;20099;-90
2021/12/28 10:16:54;;;;;;;35.50;10.07;;;7.80;99.90;;;;;;6248934;22;20030;-90
2021/12/28 10:19:31;;;;;;;34.15;9.95;;;7.80;99.90;;;;;;6223920;22;20019;-91
2021/12/28 10:21:57;;;;;;;29.45;9.80;;;7.80;99.90;;;;;;6249901;22;20027;-92
2021/12/28 10:24:34;;;;;;;31.67;10.38;;;7.90;99.90;;;;;;6249780;22;20022;-91
2021/12/28 10:27:30;;;;;;;39.42;11.25;;;7.90;99.90;;;;;;6249708;22;20045;-89
2021/12/28 10:30:08;;;;;;;38.05;11.23;;;8.00;99.90;;;;;;6128650;23;20111;-89
2021/12/28 10:32:35;;;;;;;27.88;11.20;;;8.00;99.90;;;;;;6128547;23;20025;-90
2021/12/28 10:35:14;;;;;;;32.55;11.43;;;8.00;99.90;;;;;;6128497;23;20104;-94
2021/12/28 10:37:45;;;;;;;30.85;11.77;;;8.10;99.90;;;;;;6129347;23;20022;-90
2021/12/28 10:40:14;;;;;;;36.55;13.55;;;8.30;99.90;;;;;;6128876;23;20121;-90
2021/12/28 10:43:03;;;;;;;34.15;12.25;;;8.20;99.90;;;;;;6126449;23;20022;-90
2021/12/28 10:45:43;;;;;;;29.33;12.32;;;8.50;99.90;;;;;;6124997;23;20021;-91
2021/12/28 10:48:14;;;;;;;35.78;12.80;;;8.20;99.90;;;;;;6127678;23;20354;-90
2021/12/28 10:51:07;;;;;;;29.08;13.98;;;8.20;99.90;;;;;;6103003;23;20025;-90
2021/12/28 10:54:02;;;;;;;37.53;14.77;;;8.30;99.90;;;;;;6102629;23;20034;-91
2021/12/28 10:56:34;;;;;;;44.97;14.95;;;8.60;99.90;;;;;;6102387;23;20351;-89
2021/12/28 10:59:00;;;;;;;33.33;13.48;;;8.30;99.90;;;;;;6127020;23;20018;-91
2021/12/28 11:01:33;;;;;;;49.28;14.82;;;8.40;99.90;;;;;;6126516;23;20029;-90
2021/12/28 11:04:04;;;;;;;36.90;14.13;;;8.30;99.90;;;;;;6126990;23;20104;-91
2021/12/28 11:06:38;;;;;;;52.47;16.38;;;8.60;99.90;;;;;;6197604;22;20020;-90
2021/12/28 11:09:10;;;;;;;38.28;14.68;;;8.30;99.90;;;;;;6246886;22;20024;-90
2021/12/28 11:11:36;;;;;;;35.13;15.23;;;8.30;99.90;;;;;;6247757;22;20019;-93
2021/12/28 11:14:09;;;;;;;38.13;17.15;;;8.60;99.90;;;;;;6248901;22;20075;-92
2021/12/28 11:16:35;;;;;;;42.72;16.90;;;8.40;99.90;;;;;;6223324;22;20549;-92
2021/12/28 11:19:05;;;;;;;49.28;19.45;;;8.70;99.90;;;;;;6249708;22;20016;-92
2021/12/28 11:21:39;;;;;;;50.15;20.13;;;8.40;99.90;;;;;;6223307;22;20019;-91
2021/12/28 11:24:15;;;;;;;83.05;23.58;;;8.40;99.90;;;;;;6249138;22;20019;-93
2021/12/28 11:26:46;;;;;;;41.25;16.73;;;8.80;99.90;;;;;;6223607;22;20055;-91
2021/12/28 11:29:13;;;;;;;;;;;8.50;99.90;;;;;;6224102;22;20448;-92
2021/12/28 11:31:50;;;;;;;39.00;15.02;;;8.50;99.90;;;;;;6222763;22;19915;-92
2021/12/28 11:34:28;;;;;;;47.00;18.70;;;8.50;99.90;;;;;;6222972;22;20024;-91
2021/12/28 11:37:20;;;;;;;36.63;16.58;;;8.50;99.90;;;;;;6248668;22;20110;-91
2021/12/28 11:39:59;;;;;;;31.98;16.00;;;8.50;99.90;;;;;;6102837;23;20138;-93
2021/12/28 11:42:27;;;;;;;44.50;17.63;;;8.80;99.90;;;;;;6128605;23;20080;-91
2021/12/28 11:44:53;;;;;;;37.95;16.05;;;8.60;99.90;;;;;;6128564;23;20347;-91
2021/12/28 11:47:19;;;;;;;29.40;13.80;;;8.50;99.90;;;;;;6103982;23;20028;-90
2021/12/28 11:49:46;;;;;;;38.88;16.98;;;8.50;99.90;;;;;;6152691;23;20060;-90
2021/12/28 11:52:14;;;;;;;24.67;14.70;;;8.50;99.90;;;;;;6103973;23;20029;-92
2021/12/28 11:54:46;;;;;;;32.70;16.23;;;8.80;99.90;;;;;;6127971;23;20463;-91
2021/12/28 11:57:16;;;;;;;37.47;16.52;;;8.70;99.90;;;;;;6125544;23;20146;-90
2021/12/28 11:59:54;;;;;;;36.22;16.52;;;8.70;99.90;;;;;;6127555;23;20033;-92
2021/12/28 12:02:33;;;;;;;29.48;14.25;;;8.50;99.90;;;;;;6127563;23;20077;-92
2021/12/28 12:04:59;;;;;;;39.33;17.25;;;8.70;99.90;;;;;;6101909;23;20021;-92
2021/12/28 12:07:27;;;;;;;35.22;16.55;;;9.10;99.90;;;;;;6127778;23;20157;-91
2021/12/28 12:09:52;;;;;;;40.35;16.17;;;8.70;99.90;;;;;;6128157;23;20029;-91
2021/12/28 12:12:30;;;;;;;34.85;16.90;;;8.60;99.90;;;;;;6102954;23;20030;-91
2021/12/28 12:15:01;;;;;;;29.80;15.13;;;8.70;99.90;;;;;;6128250;23;20040;-90
2021/12/28 12:17:37;;;;;;;26.77;14.33;;;8.80;99.90;;;;;;6200978;23;20539;-91
2021/12/28 12:20:15;;;;;;;29.65;15.27;;;8.70;99.90;;;;;;6194706;23;20266;-94
2021/12/28 12:22:43;;;;;;;41.47;18.23;;;8.70;99.90;;;;;;6194831;23;20024;-91
2021/12/28 12:25:12;;;;;;;33.53;16.35;;;8.80;99.90;;;;;;6195236;23;20019;-92
2021/12/28 12:27:51;;;;;;;25.92;14.07;;;8.90;99.90;;;;;;6194405;23;20086;-90
2021/12/28 12:30:17;;;;;;;33.17;14.57;;;8.80;99.90;;;;;;6220098;23;20089;-94
2021/12/28 12:33:06;;;;;;;31.83;14.68;;;8.90;99.90;;;;;;6219527;23;20024;-93
2021/12/28 12:35:40;;;;;;;24.50;13.80;;;8.90;99.90;;;;;;6195246;23;20024;-93
2021/12/28 12:38:15;;;;;;;34.17;15.63;;;8.90;99.90;;;;;;6220267;23;20016;-91
2021/12/28 12:41:04;;;;;;;32.00;13.98;;;8.90;99.90;;;;;;6196129;23;20027;-93
2021/12/28 12:43:36;;;;;;;31.60;14.25;;;8.90;99.90;;;;;;6195971;23;20348;-92
2021/12/28 12:46:23;;;;;;;25.88;13.23;;;8.90;99.90;;;;;;6194709;23;20082;-92